createdAt,value
2018-01-10T06:52:55.721Z,3
2018-01-10T07:01:56.268Z,7
2018-01-10T07:04:56.453Z,10
2018-01-10T07:06:56.623Z,13
2018-01-10T07:08:56.704Z,17
2018-01-10T07:09:56.754Z,20
2018-01-10T07:10:56.887Z,23
2018-01-10T07:11:56.874Z,27
2018-01-10T07:12:26.916Z,30
2018-01-10T07:13:26.973Z,33
2018-01-10T07:14:27.016Z,37
2018-01-10T07:14:57.056Z,40
2018-01-10T07:15:57.132Z,43
2018-01-10T07:16:27.166Z,47
2018-01-10T07:16:57.244Z,50
2018-01-10T07:17:27.213Z,53
2018-01-10T07:17:57.272Z,57
2018-01-10T07:18:27.306Z,60
2018-01-10T07:18:57.322Z,63
2018-01-10T07:19:27.404Z,67
2018-01-10T07:19:57.389Z,70
2018-01-10T07:20:27.482Z,77
2018-01-10T07:20:57.469Z,80
2018-01-10T07:21:27.488Z,87
2018-01-10T07:21:57.572Z,97
2018-01-10T07:22:27.583Z,103
2018-01-10T07:22:57.603Z,113
2018-01-10T07:23:27.587Z,123
2018-01-10T07:23:57.670Z,133
2018-01-10T07:24:27.686Z,143
2018-01-10T07:24:57.747Z,150
2018-01-10T07:25:27.808Z,160
2018-01-10T07:25:57.784Z,170
2018-01-10T07:26:27.788Z,177
2018-01-10T07:26:57.864Z,187
2018-01-10T07:27:27.912Z,197
2018-01-10T07:27:57.917Z,210
2018-01-10T07:28:27.909Z,217
2018-01-10T07:28:57.956Z,227
2018-01-10T07:29:27.947Z,237
2018-01-10T07:29:58.040Z,247
2018-01-10T07:30:28.123Z,257
2018-01-10T07:30:58.138Z,267
2018-01-10T07:31:28.101Z,273
2018-01-10T07:31:58.174Z,283
2018-01-10T07:32:28.167Z,293
2018-01-10T07:32:58.230Z,303
2018-01-10T07:33:28.241Z,317
2018-01-10T07:33:58.251Z,330
2018-01-10T07:34:28.271Z,343
2018-01-10T07:34:58.336Z,360
2018-01-10T07:35:28.435Z,373
2018-01-10T07:35:58.394Z,387
2018-01-10T07:36:28.393Z,403
2018-01-10T07:36:58.415Z,417
2018-01-10T07:37:28.497Z,427
2018-01-10T07:37:58.506Z,437
2018-01-10T07:38:28.530Z,447
2018-01-10T07:38:58.584Z,457
2018-01-10T07:39:28.586Z,470
2018-01-10T07:39:58.622Z,483
2018-01-10T07:40:28.726Z,503
2018-01-10T07:40:58.661Z,527
2018-01-10T07:41:28.725Z,550
2018-01-10T07:41:58.745Z,577
2018-01-10T07:42:28.748Z,603
2018-01-10T07:42:58.785Z,627
2018-01-10T07:43:28.795Z,647
2018-01-10T07:43:58.841Z,670
2018-01-10T07:44:28.907Z,700
2018-01-10T07:44:58.939Z,727
2018-01-10T07:45:28.971Z,750
2018-01-10T07:45:59.010Z,777
2018-01-10T07:46:28.981Z,793
2018-01-10T07:46:59.059Z,807
2018-01-10T07:47:29.041Z,813
2018-01-10T07:48:29.138Z,810
2018-01-10T07:49:29.190Z,803
2018-01-10T07:50:29.314Z,807
2018-01-10T07:50:59.345Z,803
2018-01-10T07:51:59.363Z,807
2018-01-10T07:52:29.370Z,810
2018-01-10T07:52:59.459Z,817
2018-01-10T07:53:29.453Z,820
2018-01-10T07:53:59.503Z,823
2018-01-10T07:54:29.506Z,830
2018-01-10T07:54:59.551Z,837
2018-01-10T07:56:29.628Z,853
2018-01-10T07:56:59.677Z,870
2018-01-10T07:57:29.682Z,880
2018-01-10T07:57:59.726Z,893
2018-01-10T07:58:29.728Z,917
2018-01-10T07:58:59.758Z,937
2018-01-10T07:59:29.820Z,957
2018-01-10T07:59:59.955Z,977
2018-01-10T08:00:29.848Z,987
2018-01-10T08:00:59.885Z,997
2018-01-10T08:01:29.956Z,1010
2018-01-10T08:01:59.941Z,1017
2018-01-10T08:02:29.980Z,1013
2018-01-10T08:03:00.138Z,1020
2018-01-10T08:03:30.052Z,1027
2018-01-10T08:04:00.205Z,1030
2018-01-10T08:04:30.138Z,1043
2018-01-10T08:05:00.161Z,1053
2018-01-10T08:05:30.148Z,1063
2018-01-10T08:06:00.207Z,1073
2018-01-10T08:06:30.320Z,1093
2018-01-10T08:07:01.013Z,1110
2018-01-10T08:07:30.332Z,1130
2018-01-10T08:08:00.833Z,1150
2018-01-10T08:08:30.358Z,1163
2018-01-10T08:09:00.860Z,1177
2018-01-10T08:09:30.432Z,1187
2018-01-10T08:10:00.595Z,1200
2018-01-10T08:10:30.541Z,1213
2018-01-10T08:11:00.698Z,1230
2018-01-10T08:11:30.569Z,1250
2018-01-10T08:12:01.141Z,1273
2018-01-10T08:12:30.651Z,1293
2018-01-10T08:13:00.863Z,1310
2018-01-10T08:13:30.680Z,1323
2018-01-10T08:14:00.908Z,1350
2018-01-10T08:14:30.781Z,1367
2018-01-10T08:15:00.861Z,1373
2018-01-10T08:15:30.806Z,1383
2018-01-10T08:16:00.864Z,1393
2018-01-10T08:16:30.965Z,1407
2018-01-10T08:17:01.208Z,1430
2018-01-10T08:17:30.946Z,1463
2018-01-10T08:18:00.939Z,1477
2018-01-10T08:18:31.011Z,1487
2018-01-10T08:19:01.054Z,1493
2018-01-10T08:19:31.068Z,1500
2018-01-10T08:20:01.078Z,1510
2018-01-10T08:20:31.131Z,1533
2018-01-10T08:21:01.122Z,1553
2018-01-10T08:22:01.179Z,1583
2018-01-10T08:22:31.219Z,1597
2018-01-10T08:23:01.289Z,1587
2018-01-10T08:23:31.321Z,1593
2018-01-10T08:24:01.388Z,1603
2018-01-10T08:24:31.311Z,1617
2018-01-10T08:25:01.393Z,1627
2018-01-10T08:25:31.411Z,1657
2018-01-10T08:26:01.432Z,1700
2018-01-10T08:26:31.460Z,1677
2018-01-10T08:27:01.508Z,1667
2018-01-10T08:27:31.546Z,1603
2018-01-10T08:28:01.565Z,1563
2018-01-10T08:28:31.641Z,1547
2018-01-10T08:29:01.647Z,1527
2018-01-10T08:29:31.621Z,1507
2018-01-10T08:30:01.703Z,1493
2018-01-10T08:30:31.684Z,1483
2018-01-10T08:31:01.780Z,1473
2018-01-10T08:31:31.772Z,1463
2018-01-10T08:32:01.845Z,1450
2018-01-10T08:32:31.883Z,1437
2018-01-10T08:33:01.913Z,1423
2018-01-10T08:33:31.860Z,1413
2018-01-10T08:34:01.928Z,1407
2018-01-10T08:35:01.987Z,1403
2018-01-10T08:36:02.058Z,1400
2018-01-10T08:37:02.135Z,1393
2018-01-10T08:37:32.162Z,1390
2018-01-10T08:38:02.197Z,1383
2018-01-10T08:38:32.187Z,1380
2018-01-10T08:39:02.243Z,1373
2018-01-10T08:39:32.284Z,1363
2018-01-10T08:40:02.370Z,1357
2018-01-10T08:40:32.306Z,1350
2018-01-10T08:41:02.458Z,1343
2018-01-10T08:41:32.374Z,1337
2018-01-10T08:42:02.441Z,1330
2018-01-10T08:42:32.446Z,1327
2018-01-10T08:43:02.550Z,1317
2018-01-10T08:43:32.508Z,1313
2018-01-10T08:44:02.604Z,1310
2018-01-10T08:45:02.649Z,1313
2018-01-10T08:46:02.717Z,1310
2018-01-10T08:46:32.735Z,1300
2018-01-10T08:47:02.725Z,1293
2018-01-10T08:47:32.749Z,1283
2018-01-10T08:48:02.905Z,1277
2018-01-10T08:48:32.837Z,1270
2018-01-10T08:49:02.848Z,1267
2018-01-10T08:49:32.868Z,1270
2018-01-10T08:50:02.895Z,1273
2018-01-10T08:50:32.931Z,1280
2018-01-10T08:51:03.029Z,1287
2018-01-10T08:51:32.971Z,1300
2018-01-10T08:52:03.061Z,1317
2018-01-10T08:52:33.055Z,1333
2018-01-10T08:53:03.139Z,1353
2018-01-10T08:53:33.109Z,1383
2018-01-10T08:54:03.160Z,1413
2018-01-10T08:54:33.166Z,1433
2018-01-10T08:55:03.245Z,1430
2018-01-10T08:55:33.254Z,1433
2018-01-10T08:56:03.333Z,1463
2018-01-10T08:56:33.302Z,1493
2018-01-10T08:57:03.363Z,1517
2018-01-10T08:57:33.356Z,1547
2018-01-10T08:58:03.411Z,1583
2018-01-10T08:58:33.449Z,1630
2018-01-10T08:59:03.501Z,1680
2018-01-10T08:59:33.508Z,1723
2018-01-10T09:00:03.542Z,1773
2018-01-10T09:00:33.534Z,1813
2018-01-10T09:01:03.644Z,1843
2018-01-10T09:01:34.016Z,1867
2018-01-10T09:02:03.691Z,1883
2018-01-10T09:02:33.696Z,1897
2018-01-10T09:03:03.716Z,1907
2018-01-10T09:03:33.763Z,1917
2018-01-10T09:04:03.767Z,1920
2018-01-10T09:04:33.820Z,1917
2018-01-10T09:05:03.857Z,1913
2018-01-10T09:05:33.918Z,1910
2018-01-10T09:06:03.986Z,1907
2018-01-10T09:06:33.933Z,1903
2018-01-10T09:07:03.947Z,1900
2018-01-10T09:07:34.030Z,1897
2018-01-10T09:08:04.054Z,1893
2018-01-10T09:09:04.108Z,1890
2018-01-10T09:09:34.161Z,1887
2018-01-10T09:10:34.158Z,1893
2018-01-10T09:11:04.269Z,1907
2018-01-10T09:11:34.254Z,1920
2018-01-10T09:12:04.344Z,1933
2018-01-10T09:12:34.321Z,1947
2018-01-10T09:13:04.352Z,1953
2018-01-10T09:13:34.375Z,1963
2018-01-10T09:14:34.397Z,1967
2018-01-10T09:15:04.482Z,1970
2018-01-10T09:15:34.462Z,1973
2018-01-10T09:16:04.550Z,1980
2018-01-10T09:16:34.529Z,1983
2018-01-10T09:17:04.570Z,1987
2018-01-10T09:18:04.695Z,1983
2018-01-10T09:18:34.669Z,1973
2018-01-10T09:19:04.710Z,1963
2018-01-10T09:19:34.713Z,1953
2018-01-10T09:20:04.752Z,1940
2018-01-10T09:20:34.754Z,1930
2018-01-10T09:21:04.813Z,1927
2018-01-10T09:22:34.939Z,1933
2018-01-10T09:23:04.939Z,1947
2018-01-10T09:23:34.976Z,1960
2018-01-10T09:24:05.031Z,1977
2018-01-10T09:24:34.995Z,1993
2018-01-10T09:25:05.148Z,2010
2018-01-10T09:25:35.071Z,2027
2018-01-10T09:26:05.146Z,2043
2018-01-10T09:26:35.155Z,2063
2018-01-10T09:27:05.228Z,2087
2018-01-10T09:27:35.200Z,2117
2018-01-10T09:28:05.241Z,2147
2018-01-10T09:28:35.282Z,2183
2018-01-10T09:29:05.282Z,2223
2018-01-10T09:29:35.353Z,2270
2018-01-10T09:30:05.383Z,2323
2018-01-10T09:30:35.425Z,2373
2018-01-10T09:31:05.442Z,2437
2018-01-10T09:31:35.475Z,2500
2018-01-10T09:32:05.554Z,2563
2018-01-10T09:32:35.788Z,2643
2018-01-10T09:33:05.572Z,2733
2018-01-10T09:33:35.609Z,2833
2018-01-10T09:34:05.652Z,2957
2018-01-10T09:34:35.670Z,3103
2018-01-10T09:35:05.700Z,3240
2018-01-10T09:35:35.699Z,3270
2018-01-10T09:36:05.779Z,3313
2018-01-10T09:36:35.762Z,3413
2018-01-10T09:37:05.780Z,3517
2018-01-10T09:37:35.832Z,3617
2018-01-10T09:38:05.864Z,3703
2018-01-10T09:38:35.872Z,3797
2018-01-10T09:39:05.907Z,3883
2018-01-10T09:39:35.934Z,3963
2018-01-10T09:40:06.020Z,4033
2018-01-10T09:40:35.988Z,4097
2018-01-10T09:41:06.104Z,4157
2018-01-10T09:41:36.055Z,4207
2018-01-10T09:42:06.105Z,4247
2018-01-10T09:42:36.380Z,4267
2018-01-10T09:43:36.165Z,4257
2018-01-10T09:44:06.257Z,4233
2018-01-10T09:44:36.276Z,4207
2018-01-10T09:45:06.332Z,4160
2018-01-10T09:45:36.326Z,4103
2018-01-10T09:46:06.359Z,4047
2018-01-10T09:46:36.386Z,3980
2018-01-10T09:47:06.423Z,3907
2018-01-10T09:47:36.516Z,3833
2018-01-10T09:48:06.554Z,3757
2018-01-10T09:48:36.464Z,3677
2018-01-10T09:49:06.554Z,3610
2018-01-10T09:49:36.579Z,3570
2018-01-10T09:50:06.681Z,3547
2018-01-10T09:50:36.632Z,3530
2018-01-10T09:51:06.694Z,3487
2018-01-10T09:51:36.808Z,3423
2018-01-10T09:52:06.800Z,3377
2018-01-10T09:52:36.793Z,3317
2018-01-10T09:53:06.836Z,3257
2018-01-10T09:53:36.798Z,3193
2018-01-10T09:54:06.879Z,3100
2018-01-10T09:54:36.876Z,2993
2018-01-10T09:55:06.947Z,2883
2018-01-10T09:55:36.978Z,2777
2018-01-10T09:56:06.986Z,2703
2018-01-10T09:56:36.997Z,2663
2018-01-10T09:57:07.014Z,2660
2018-01-10T09:57:37.098Z,2670
2018-01-10T09:58:07.192Z,2690
2018-01-10T09:58:37.192Z,2707
2018-01-10T09:59:07.204Z,2737
2018-01-10T09:59:37.193Z,2767
2018-01-10T10:00:07.245Z,2793
2018-01-10T10:00:37.212Z,2817
2018-01-10T10:01:07.254Z,2837
2018-01-10T10:02:07.355Z,2833
2018-01-10T10:02:37.388Z,2823
2018-01-10T10:03:07.450Z,2800
2018-01-10T10:03:37.399Z,2777
2018-01-10T10:04:07.487Z,2750
2018-01-10T10:04:37.539Z,2723
2018-01-10T10:05:07.526Z,2690
2018-01-10T10:05:37.568Z,2687
2018-01-10T10:06:07.651Z,2717
2018-01-10T10:06:37.601Z,2763
2018-01-10T10:07:07.691Z,2790
2018-01-10T10:07:37.678Z,2793
2018-01-10T10:08:07.751Z,2757
2018-01-10T10:08:37.719Z,2683
2018-01-10T10:09:07.807Z,2617
2018-01-10T10:09:37.801Z,2553
2018-01-10T10:10:07.808Z,2483
2018-01-10T10:10:37.858Z,2437
2018-01-10T10:11:07.869Z,2363
2018-01-10T10:11:37.898Z,2290
2018-01-10T10:12:07.965Z,2227
2018-01-10T10:12:37.959Z,2133
2018-01-10T10:13:08.061Z,2030
2018-01-10T10:13:38.006Z,1907
2018-01-10T10:14:08.055Z,1800
2018-01-10T10:14:38.061Z,1700
2018-01-10T10:15:08.133Z,1577
2018-01-10T10:15:38.142Z,1443
2018-01-10T10:16:08.250Z,1293
2018-01-10T10:16:38.185Z,1167
2018-01-10T10:17:08.254Z,1060
2018-01-10T10:17:38.296Z,970
2018-01-10T10:18:08.378Z,893
2018-01-10T10:18:38.379Z,827
2018-01-10T10:19:08.368Z,770
2018-01-10T10:19:38.404Z,723
2018-01-10T10:20:08.438Z,693
2018-01-10T10:20:38.458Z,670
2018-01-10T10:21:08.770Z,657
2018-01-10T10:21:38.510Z,650
2018-01-10T10:22:38.695Z,660
2018-01-10T10:23:08.741Z,677
2018-01-10T10:23:38.644Z,700
2018-01-10T10:24:09.688Z,720
2018-01-10T10:24:38.684Z,730
2018-01-10T10:25:08.727Z,733
2018-01-10T10:26:38.819Z,723
2018-01-10T10:27:08.857Z,707
2018-01-10T10:27:38.882Z,680
2018-01-10T10:28:08.988Z,640
2018-01-10T10:28:38.924Z,590
2018-01-10T10:29:08.996Z,543
2018-01-10T10:29:38.989Z,503
2018-01-10T10:30:09.047Z,487
2018-01-10T10:31:09.110Z,500
2018-01-10T10:31:39.131Z,507
2018-01-10T10:32:09.184Z,520
2018-01-10T10:32:39.197Z,553
2018-01-10T10:33:09.253Z,573
2018-01-10T10:33:39.317Z,580
2018-01-10T10:34:09.307Z,583
2018-01-10T10:35:09.375Z,587
2018-01-10T10:35:39.402Z,590
2018-01-10T10:36:09.516Z,607
2018-01-10T10:36:39.481Z,637
2018-01-10T10:37:09.540Z,687
2018-01-10T10:37:39.545Z,740
2018-01-10T10:38:09.595Z,780
2018-01-10T10:38:39.582Z,807
2018-01-10T10:39:09.661Z,833
2018-01-10T10:39:39.646Z,853
2018-01-10T10:40:09.694Z,873
2018-01-10T10:40:39.681Z,893
2018-01-10T10:41:09.780Z,903
2018-01-10T10:41:40.011Z,900
2018-01-10T10:42:09.832Z,893
2018-01-10T10:42:39.841Z,890
2018-01-10T10:43:09.937Z,880
2018-01-10T10:43:39.916Z,887
2018-01-10T10:44:09.963Z,877
2018-01-10T10:44:39.977Z,880
2018-01-10T10:45:10.008Z,857
2018-01-10T10:45:39.969Z,847
2018-01-10T10:46:10.103Z,853
2018-01-10T10:46:40.047Z,847
2018-01-10T10:47:10.102Z,823
2018-01-10T10:47:40.140Z,807
2018-01-10T10:48:10.227Z,770
2018-01-10T10:48:40.167Z,767
2018-01-10T10:49:10.272Z,753
2018-01-10T10:49:40.323Z,740
2018-01-10T10:50:10.360Z,760
2018-01-10T10:50:40.383Z,790
2018-01-10T10:51:10.442Z,820
2018-01-10T10:51:40.374Z,830
2018-01-10T10:52:10.418Z,860
2018-01-10T10:52:40.403Z,937
2018-01-10T10:53:10.514Z,1033
2018-01-10T10:53:40.492Z,1173
2018-01-10T10:54:10.570Z,1357
2018-01-10T10:54:40.536Z,1473
2018-01-10T10:55:10.590Z,1553
2018-01-10T10:55:40.598Z,1600
2018-01-10T10:56:10.700Z,1647
2018-01-10T10:56:40.683Z,1720
2018-01-10T10:57:10.710Z,1787
2018-01-10T10:57:40.787Z,1820
2018-01-10T10:58:10.813Z,1840
2018-01-10T10:58:40.826Z,1880
2018-01-10T10:59:10.834Z,1940
2018-01-10T10:59:40.833Z,2017
2018-01-10T11:00:10.876Z,2110
2018-01-10T11:00:40.923Z,2203
2018-01-10T11:01:10.945Z,2303
2018-01-10T11:01:40.976Z,2420
2018-01-10T11:02:10.996Z,2523
2018-01-10T11:02:41.082Z,2653
2018-01-10T11:03:11.127Z,2807
2018-01-10T11:03:41.134Z,2957
2018-01-10T11:04:11.182Z,3093
2018-01-10T11:04:41.152Z,3290
2018-01-10T11:05:11.215Z,3557
2018-01-10T11:05:41.213Z,3873
2018-01-10T11:06:11.768Z,4317
2018-01-10T11:06:41.362Z,4800
2018-01-10T11:07:11.326Z,5367
2018-01-10T11:07:41.378Z,6010
2018-01-10T11:08:11.468Z,6773
2018-01-10T11:08:41.421Z,7303
2018-01-10T11:09:11.461Z,7707
2018-01-10T11:09:41.453Z,8070
2018-01-10T11:10:11.555Z,8230
2018-01-10T11:10:41.543Z,8460
2018-01-10T11:11:11.615Z,8367
2018-01-10T11:11:41.591Z,8133
2018-01-10T11:12:11.618Z,7773
2018-01-10T11:12:41.656Z,7437
2018-01-10T11:13:11.747Z,7143
2018-01-10T11:13:41.709Z,7017
2018-01-10T11:14:11.793Z,6913
2018-01-10T11:14:41.771Z,6817
2018-01-10T11:15:11.803Z,6627
2018-01-10T11:15:41.877Z,6330
2018-01-10T11:16:11.912Z,6060
2018-01-10T11:16:41.896Z,5943
2018-01-10T11:17:11.946Z,5870
2018-01-10T11:17:41.938Z,5767
2018-01-10T11:18:12.038Z,5643
2018-01-10T11:18:42.014Z,5387
2018-01-10T11:19:12.060Z,5177
2018-01-10T11:19:42.068Z,4990
2018-01-10T11:20:12.166Z,4823
2018-01-10T11:20:42.166Z,4603
2018-01-10T11:21:12.207Z,4347
2018-01-10T11:21:42.286Z,4173
2018-01-10T11:22:12.252Z,3907
2018-01-10T11:22:42.279Z,3600
2018-01-10T11:23:12.377Z,3503
2018-01-10T11:23:42.352Z,3470
2018-01-10T11:24:12.376Z,3537
2018-01-10T11:24:42.456Z,3697
2018-01-10T11:25:12.433Z,3847
2018-01-10T11:25:42.461Z,3860
2018-01-10T11:26:12.690Z,3840
2018-01-10T11:26:42.484Z,3877
2018-01-10T11:27:12.597Z,3837
2018-01-10T11:27:42.559Z,3737
2018-01-10T11:28:12.690Z,3487
2018-01-10T11:28:42.686Z,3227
2018-01-10T11:29:12.739Z,3120
2018-01-10T11:29:42.746Z,3117
2018-01-10T11:30:12.778Z,3170
2018-01-10T11:30:42.808Z,3240
2018-01-10T11:31:12.869Z,3277
2018-01-10T11:31:42.814Z,3140
2018-01-10T11:32:12.889Z,3017
2018-01-10T11:32:42.944Z,2893
2018-01-10T11:33:12.980Z,2767
2018-01-10T11:33:42.949Z,2720
2018-01-10T11:34:13.016Z,2740
2018-01-10T11:34:43.058Z,2693
2018-01-10T11:35:13.045Z,2610
2018-01-10T11:35:43.098Z,2640
2018-01-10T11:36:13.114Z,2833
2018-01-10T11:36:43.162Z,3017
2018-01-10T11:37:13.176Z,3137
2018-01-10T11:37:43.202Z,3203
2018-01-10T11:38:13.338Z,3107
2018-01-10T11:38:43.295Z,2940
2018-01-10T11:39:13.361Z,2823
2018-01-10T11:39:43.336Z,2683
2018-01-10T11:40:13.374Z,2563
2018-01-10T11:40:43.405Z,2447
2018-01-10T11:41:13.446Z,2333
2018-01-10T11:41:43.432Z,2193
2018-01-10T11:42:13.492Z,2090
2018-01-10T11:42:43.527Z,2030
2018-01-10T11:43:13.592Z,2013
2018-01-10T11:43:43.563Z,2020
2018-01-10T11:44:13.697Z,2030
2018-01-10T11:44:43.644Z,2013
2018-01-10T11:45:13.661Z,1983
2018-01-10T11:45:43.743Z,1957
2018-01-10T11:46:13.752Z,1917
2018-01-10T11:46:43.747Z,1880
2018-01-10T11:47:13.780Z,1810
2018-01-10T11:47:43.836Z,1780
2018-01-10T11:48:13.911Z,1800
2018-01-10T11:48:43.855Z,1830
2018-01-10T11:49:13.913Z,1893
2018-01-10T11:49:43.930Z,1973
2018-01-10T11:50:13.949Z,2070
2018-01-10T11:50:43.969Z,2113
2018-01-10T11:51:14.065Z,2133
2018-01-10T11:51:44.082Z,2170
2018-01-10T11:52:14.098Z,2230
2018-01-10T11:52:44.086Z,2297
2018-01-10T11:53:14.185Z,2407
2018-01-10T11:53:44.185Z,2493
2018-01-10T11:54:14.225Z,2497
2018-01-10T11:54:44.267Z,2433
2018-01-10T11:55:14.288Z,2397
2018-01-10T11:55:44.333Z,2383
2018-01-10T11:56:14.392Z,2360
2018-01-10T11:56:44.576Z,2330
2018-01-10T11:57:14.409Z,2273
2018-01-10T11:57:44.471Z,2247
2018-01-10T11:58:14.607Z,2223
2018-01-10T11:58:44.484Z,2217
2018-01-10T11:59:14.576Z,2287
2018-01-10T11:59:44.546Z,2303
2018-01-10T12:00:14.561Z,2240
2018-01-10T12:00:44.587Z,2087
2018-01-10T12:01:14.645Z,1967
2018-01-10T12:01:44.665Z,1913
2018-01-10T12:02:14.697Z,1887
2018-01-10T12:02:44.703Z,1850
2018-01-10T12:03:14.884Z,1823
2018-01-10T12:03:44.785Z,1873
2018-01-10T12:04:14.845Z,1967
2018-01-10T12:04:44.858Z,2103
2018-01-10T12:05:14.894Z,2183
2018-01-10T12:05:44.916Z,2203
2018-01-10T12:06:45.018Z,2170
2018-01-10T12:07:15.055Z,2253
2018-01-10T12:07:45.074Z,2470
2018-01-10T12:08:15.125Z,2720
2018-01-10T12:08:45.124Z,2993
2018-01-10T12:09:15.122Z,3170
2018-01-10T12:09:45.139Z,3327
2018-01-10T12:10:15.191Z,3560
2018-01-10T12:10:45.262Z,3900
2018-01-10T12:11:15.314Z,4103
2018-01-10T12:11:45.330Z,4523
2018-01-10T12:12:15.313Z,4650
2018-01-10T12:12:45.325Z,4430
2018-01-10T12:13:15.465Z,4237
2018-01-10T12:13:45.426Z,4173
2018-01-10T12:14:15.475Z,4220
2018-01-10T12:14:45.472Z,4077
2018-01-10T12:15:15.516Z,4020
2018-01-10T12:15:45.571Z,3960
2018-01-10T12:16:15.632Z,4007
2018-01-10T12:16:45.640Z,3960
2018-01-10T12:17:15.657Z,3743
2018-01-10T12:17:45.661Z,3677
2018-01-10T12:18:15.770Z,3427
2018-01-10T12:18:45.755Z,3097
2018-01-10T12:19:15.821Z,2860
2018-01-10T12:19:45.788Z,2663
2018-01-10T12:20:15.876Z,2600
2018-01-10T12:20:45.890Z,2427
2018-01-10T12:21:15.864Z,2373
2018-01-10T12:21:45.929Z,2347
2018-01-10T12:22:15.979Z,2187
2018-01-10T12:22:45.958Z,2183
2018-01-10T12:23:46.129Z,2217
2018-01-10T12:24:16.061Z,2290
2018-01-10T12:24:46.158Z,2273
2018-01-10T12:25:16.171Z,2170
2018-01-10T12:25:46.157Z,2327
2018-01-10T12:26:16.235Z,2503
2018-01-10T12:26:46.216Z,2453
2018-01-10T12:27:16.297Z,2347
2018-01-10T12:27:46.287Z,2343
2018-01-10T12:28:16.307Z,2310
2018-01-10T12:28:46.423Z,2473
2018-01-10T12:29:16.446Z,2690
2018-01-10T12:29:46.416Z,2717
2018-01-10T12:30:16.446Z,2713
2018-01-10T12:30:46.472Z,2333
2018-01-10T12:31:16.485Z,2583
2018-01-10T12:31:46.520Z,2923
2018-01-10T12:32:16.527Z,2927
2018-01-10T12:32:46.586Z,2887
2018-01-10T12:33:16.635Z,2543
2018-01-10T12:33:46.701Z,2327
2018-01-10T12:34:16.688Z,2457
2018-01-10T12:34:46.696Z,2497
2018-01-10T12:35:16.740Z,2447
2018-01-10T12:35:46.785Z,2407
2018-01-10T12:36:16.834Z,2417
2018-01-10T12:36:46.841Z,2337
2018-01-10T12:37:16.854Z,2210
2018-01-10T12:37:46.877Z,2067
2018-01-10T12:38:16.916Z,2083
2018-01-10T12:38:47.176Z,1983
2018-01-10T12:39:16.987Z,1957
2018-01-10T12:39:46.990Z,2043
2018-01-10T12:40:17.180Z,2137
2018-01-10T12:40:47.048Z,2013
2018-01-10T12:41:17.122Z,2147
2018-01-10T12:41:47.134Z,2177
2018-01-10T12:42:17.180Z,2167
2018-01-10T12:42:47.181Z,2177
2018-01-10T12:43:17.253Z,2210
2018-01-10T12:43:47.280Z,2283
2018-01-10T12:44:17.299Z,2333
2018-01-10T12:44:47.353Z,2353
2018-01-10T12:45:17.403Z,2410
2018-01-10T12:45:47.383Z,2347
2018-01-10T12:46:17.472Z,2427
2018-01-10T12:46:47.419Z,2440
2018-01-10T12:47:17.506Z,2420
2018-01-10T12:47:47.546Z,2433
2018-01-10T12:48:17.538Z,2413
2018-01-10T12:48:47.616Z,2450
2018-01-10T12:49:17.637Z,2377
2018-01-10T12:49:47.628Z,2353
2018-01-10T12:50:17.707Z,2333
2018-01-10T12:50:47.684Z,2397
2018-01-10T12:51:17.767Z,2543
2018-01-10T12:51:47.807Z,2717
2018-01-10T12:52:17.778Z,2937
2018-01-10T12:52:47.798Z,2953
2018-01-10T12:53:17.837Z,3080
2018-01-10T12:53:47.897Z,3133
2018-01-10T12:54:17.900Z,3107
2018-01-10T12:54:47.921Z,3270
2018-01-10T12:55:17.948Z,3280
2018-01-10T12:55:47.957Z,3380
2018-01-10T12:56:18.042Z,3423
2018-01-10T12:56:48.086Z,3663
2018-01-10T12:57:18.153Z,3930
2018-01-10T12:57:48.095Z,4080
2018-01-10T12:58:18.154Z,4157
2018-01-10T12:58:48.171Z,4203
2018-01-10T12:59:18.217Z,4543
2018-01-10T12:59:48.266Z,4653
2018-01-10T13:00:18.302Z,4667
2018-01-10T13:00:48.325Z,4853
2018-01-10T13:01:18.396Z,5210
2018-01-10T13:01:48.333Z,5627
2018-01-10T13:02:18.507Z,5733
2018-01-10T13:02:48.465Z,5547
2018-01-10T13:03:18.518Z,5573
2018-01-10T13:03:49.468Z,5747
2018-01-10T13:04:18.539Z,5710
2018-01-10T13:04:48.541Z,5467
2018-01-10T13:05:18.598Z,5427
2018-01-10T13:05:48.641Z,5440
2018-01-10T13:06:18.657Z,5530
2018-01-10T13:06:48.780Z,5497
2018-01-10T13:07:18.729Z,5520
2018-01-10T13:07:48.751Z,5753
2018-01-10T13:08:18.776Z,5800
2018-01-10T13:08:48.852Z,5657
2018-01-10T13:09:18.899Z,5483
2018-01-10T13:09:48.842Z,5640
2018-01-10T13:10:18.922Z,5857
2018-01-10T13:10:48.934Z,5840
2018-01-10T13:11:19.010Z,5743
2018-01-10T13:11:48.997Z,5177
2018-01-10T13:12:19.040Z,4650
2018-01-10T13:12:49.037Z,4473
2018-01-10T13:13:19.055Z,4360
2018-01-10T13:13:49.205Z,4247
2018-01-10T13:14:19.123Z,4117
2018-01-10T13:14:49.177Z,3913
2018-01-10T13:15:19.265Z,3637
2018-01-10T13:15:49.265Z,3563
2018-01-10T13:16:19.278Z,3383
2018-01-10T13:16:49.337Z,3183
2018-01-10T13:17:19.347Z,2997
2018-01-10T13:17:49.398Z,2930
2018-01-10T13:18:19.437Z,2917
2018-01-10T13:18:49.563Z,2807
2018-01-10T13:19:19.488Z,2620
2018-01-10T13:19:49.455Z,2543
2018-01-10T13:20:19.513Z,2513
2018-01-10T13:20:49.561Z,2553
2018-01-10T13:21:19.598Z,2647
2018-01-10T13:21:49.624Z,2730
2018-01-10T13:22:19.632Z,2760
2018-01-10T13:22:49.664Z,2960
2018-01-10T13:23:19.721Z,3147
2018-01-10T13:23:49.751Z,3243
2018-01-10T13:24:19.751Z,4470
2018-01-10T13:24:49.768Z,7947
2018-01-10T13:25:19.806Z,8590
2018-01-10T13:25:49.831Z,9070
2018-01-10T13:26:19.860Z,9750
2018-01-10T13:26:49.884Z,10590
2018-01-10T13:27:19.983Z,11337
2018-01-10T13:27:49.925Z,11253
2018-01-10T13:28:19.988Z,11707
2018-01-10T13:28:50.062Z,11820
2018-01-10T13:29:20.126Z,12093
2018-01-10T13:29:50.072Z,12153
2018-01-10T13:30:20.135Z,12140
2018-01-10T13:30:50.130Z,12167
2018-01-10T13:31:20.256Z,11680
2018-01-10T13:31:50.191Z,10967
2018-01-10T13:32:20.253Z,10833
2018-01-10T13:32:50.253Z,11083
2018-01-10T13:33:20.340Z,11413
2018-01-10T13:33:50.567Z,11883
2018-01-10T13:34:20.419Z,12010
2018-01-10T13:34:50.399Z,12020
2018-01-10T13:35:20.404Z,11820
2018-01-10T13:35:50.480Z,11660
2018-01-10T13:36:20.489Z,11397
2018-01-10T13:36:50.617Z,11340
2018-01-10T13:37:20.540Z,11380
2018-01-10T13:37:50.581Z,11360
2018-01-10T13:38:20.688Z,11373
2018-01-10T13:38:50.632Z,11427
2018-01-10T13:39:20.671Z,11550
2018-01-10T13:39:50.713Z,11643
2018-01-10T13:40:20.713Z,11593
2018-01-10T13:40:50.726Z,11457
2018-01-10T13:41:20.780Z,11177
2018-01-10T13:41:50.813Z,10730
2018-01-10T13:42:20.846Z,10757
2018-01-10T13:42:50.873Z,10667
2018-01-10T13:43:20.929Z,10567
2018-01-10T13:43:51.029Z,10517
2018-01-10T13:44:20.981Z,10510
2018-01-10T13:44:50.971Z,10453
2018-01-10T13:45:21.047Z,10353
2018-01-10T13:45:51.051Z,10493
2018-01-10T13:46:21.137Z,10467
2018-01-10T13:46:51.153Z,9027
2018-01-10T13:47:21.185Z,7940
2018-01-10T13:47:51.158Z,9087
2018-01-10T13:48:21.278Z,10067
2018-01-10T13:48:51.342Z,10397
2018-01-10T13:49:21.295Z,8753
2018-01-10T13:49:51.276Z,7297
2018-01-10T13:50:21.367Z,4443
2018-01-10T13:50:51.386Z,4683
2018-01-10T13:51:21.460Z,3753
2018-01-10T13:51:51.677Z,3360
2018-01-10T13:52:21.481Z,3183
2018-01-10T13:52:51.547Z,3100
2018-01-10T13:53:21.556Z,3060
2018-01-10T13:53:51.664Z,3037
2018-01-10T13:54:21.674Z,3027
2018-01-10T13:54:51.660Z,3003
2018-01-10T13:55:21.694Z,2950
2018-01-10T13:55:51.720Z,2923
2018-01-10T13:56:21.741Z,2943
2018-01-10T13:56:51.771Z,2967
2018-01-10T13:57:21.793Z,2980
2018-01-10T13:57:51.836Z,3027
2018-01-10T13:58:21.854Z,3100
2018-01-10T13:58:51.938Z,3130
2018-01-10T13:59:21.936Z,3133
2018-01-10T13:59:51.920Z,3140
2018-01-10T14:00:21.956Z,3080
2018-01-10T14:00:51.997Z,3020
2018-01-10T14:01:22.075Z,2973
2018-01-10T14:01:52.115Z,2880
2018-01-10T14:02:22.103Z,2800
2018-01-10T14:02:52.139Z,2697
2018-01-10T14:03:22.129Z,2563
2018-01-10T14:03:52.274Z,2417
2018-01-10T14:04:22.232Z,2313
2018-01-10T14:04:52.270Z,2260
2018-01-10T14:05:22.283Z,2230